Time;durP1;ratioP1;P1;durP2;ratioP2;P2;SDS_P1;SDS_P2;PMS_P1;PMS_P2;Temp;Humidity;BMP_temperature;BMP_pressure;BME280_temperature;BME280_humidity;BME280_pressure;Samples;Min_cycle;Max_cycle;Signal;HPM_P1;HPM_P2
2023/09/18 00:01:28;;;;;;;1.43;1.33;;;;;;;18.36;100.00;95764.44;5058099;28;20527;-55
2023/09/18 00:03:57;;;;;;;1.07;0.97;;;;;;;18.44;100.00;95761.03;5071545;28;20448;-55
2023/09/18 00:06:26;;;;;;;1.00;0.90;;;;;;;18.74;100.00;95762.94;5071381;28;20480;-55
2023/09/18 00:08:54;;;;;;;0.70;0.70;;;;;;;18.74;100.00;95762.13;5071070;28;20452;-55
2023/09/18 00:11:22;;;;;;;1.10;0.83;;;;;;;18.56;100.00;95736.31;5071409;28;20440;-55
2023/09/18 00:13:52;;;;;;;2.20;0.50;;;;;;;18.59;100.00;95725.75;5070255;28;20444;-55
2023/09/18 00:16:21;;;;;;;0.57;0.40;;;;;;;18.78;100.00;95771.16;5071568;28;20433;-55
2023/09/18 00:18:49;;;;;;;0.57;0.50;;;;;;;18.81;100.00;95771.34;5070535;28;21160;-55
2023/09/18 00:21:18;;;;;;;1.27;0.70;;;;;;;18.73;100.00;95768.59;5071151;28;20510;-55
2023/09/18 00:23:46;;;;;;;0.80;0.60;;;;;;;18.52;100.00;95771.00;5071372;28;20437;-56
2023/09/18 00:26:14;;;;;;;1.70;0.70;;;;;;;18.00;100.00;95777.13;5070514;28;20617;-55
2023/09/18 00:28:43;;;;;;;0.60;0.57;;;;;;;18.08;100.00;95773.72;5070761;28;20430;-55
2023/09/18 00:31:13;;;;;;;3.30;1.43;;;;;;;17.82;100.00;95780.75;5071196;28;20452;-55
2023/09/18 00:33:41;;;;;;;0.80;0.80;;;;;;;18.13;100.00;95782.44;5070595;28;20498;-56
2023/09/18 00:36:10;;;;;;;1.67;1.57;;;;;;;17.81;100.00;95788.00;5070593;28;20473;-56
2023/09/18 00:38:38;;;;;;;1.40;1.30;;;;;;;17.56;100.00;95724.25;5070513;28;20436;-56
2023/09/18 00:41:07;;;;;;;2.87;0.90;;;;;;;17.55;100.00;95747.59;5070664;28;20807;-55
2023/09/18 00:43:35;;;;;;;0.93;0.93;;;;;;;17.62;100.00;95790.06;5069766;28;20850;-55
2023/09/18 00:46:04;;;;;;;2.00;1.70;;;;;;;17.71;100.00;95791.72;5070917;28;20465;-56
2023/09/18 00:48:34;;;;;;;0.83;0.77;;;;;;;17.80;100.00;95785.66;5070280;28;20461;-56
2023/09/18 00:51:03;;;;;;;1.47;1.37;;;;;;;17.69;100.00;95790.44;5071013;28;20438;-56
2023/09/18 00:53:32;;;;;;;1.40;1.30;;;;;;;17.75;100.00;95778.50;5070155;28;20488;-56
2023/09/18 00:56:02;;;;;;;1.57;1.47;;;;;;;17.63;100.00;95776.34;5057596;28;20518;-56
2023/09/18 00:58:30;;;;;;;2.20;2.10;;;;;;;17.64;100.00;95780.63;5071205;28;20432;-56
2023/09/18 01:00:59;;;;;;;0.77;0.77;;;;;;;17.47;100.00;95775.09;5070497;28;20912;-56
2023/09/18 01:03:28;;;;;;;1.43;1.33;;;;;;;17.85;100.00;95782.84;5070887;28;20438;-56
2023/09/18 01:05:57;;;;;;;1.43;0.70;;;;;;;17.82;100.00;95780.75;5070673;28;20434;-56
2023/09/18 01:08:26;;;;;;;1.30;1.20;;;;;;;18.11;100.00;95783.84;5070030;28;20499;-56
2023/09/18 01:11:03;;;;;;;0.77;0.50;;;;;;;18.38;100.00;95783.72;5071029;28;20881;-56
2023/09/18 01:13:37;;;;;;;2.07;1.23;;;;;;;18.49;100.00;95774.34;5073691;28;20444;-56
2023/09/18 01:16:11;;;;;;;0.67;0.57;;;;;;;18.59;100.00;95782.13;5074543;28;20445;-56
2023/09/18 01:18:39;;;;;;;0.97;0.40;;;;;;;18.57;100.00;95780.84;5074195;28;20433;-55
2023/09/18 01:21:09;;;;;;;0.77;0.77;;;;;;;17.21;100.00;95632.03;5066247;28;20522;-55
2023/09/18 01:23:39;;;;;;;1.17;0.70;;;;;;;18.22;100.00;95785.16;5074788;28;20489;-55
2023/09/18 01:26:07;;;;;;;1.33;1.23;;;;;;;18.16;100.00;95792.56;5074393;28;20878;-55
2023/09/18 01:28:36;;;;;;;1.60;1.40;;;;;;;17.83;100.00;95780.47;5074493;28;20845;-55
2023/09/18 01:31:04;;;;;;;1.20;0.83;;;;;;;17.57;100.00;95788.28;5073264;28;20445;-55
2023/09/18 01:33:35;;;;;;;1.73;1.57;;;;;;;17.34;100.00;95781.25;5071129;28;20508;-54
2023/09/18 01:36:07;;;;;;;1.37;1.13;;;;;;;17.38;100.00;95786.81;5073742;28;20841;-55
2023/09/18 01:38:37;;;;;;;1.20;1.10;;;;;;;17.28;100.00;95779.00;5073509;28;20452;-54
2023/09/18 01:41:09;;;;;;;1.53;1.07;;;;;;;17.29;100.00;95783.25;5074064;28;20481;-55
2023/09/18 01:43:37;;;;;;;1.90;1.80;;;;;;;17.39;100.00;95786.50;5060313;28;20934;-55
2023/09/18 01:46:06;;;;;;;1.80;1.17;;;;;;;17.54;100.00;95786.22;5074538;28;20499;-55
2023/09/18 01:48:34;;;;;;;1.83;1.73;;;;;;;18.02;100.00;95791.03;5047846;28;20447;-54
2023/09/18 01:51:03;;;;;;;0.90;0.57;;;;;;;18.25;100.00;95773.84;5074243;28;20503;-54
2023/09/18 01:53:31;;;;;;;1.30;0.90;;;;;;;18.46;100.00;95782.19;5074070;28;20808;-54
2023/09/18 01:56:00;;;;;;;0.60;0.40;;;;;;;18.16;100.00;95781.84;5073959;28;20457;-54
2023/09/18 01:58:30;;;;;;;0.90;0.43;;;;;;;18.14;100.00;95784.00;5074124;28;20441;-55
2023/09/18 02:01:01;;;;;;;1.00;0.83;;;;;;;18.13;100.00;95787.00;5073853;28;20521;-55
2023/09/18 02:03:30;;;;;;;1.23;1.13;;;;;;;17.77;100.00;95785.16;5074100;28;20498;-55
2023/09/18 02:06:18;;;;;;;1.95;0.80;;;;;;;17.31;100.00;95779.16;5060261;28;20829;-55
2023/09/18 02:08:47;;;;;;;1.53;1.43;;;;;;;17.30;100.00;95784.84;5073566;28;20958;-55
2023/09/18 02:11:15;;;;;;;1.30;1.20;;;;;;;17.23;100.00;95773.75;5047869;28;20445;-55
2023/09/18 02:13:45;;;;;;;1.07;0.77;;;;;;;17.42;100.00;95783.22;5073106;28;20437;-55
2023/09/18 02:16:13;;;;;;;1.67;1.57;;;;;;;17.39;100.00;95778.47;5048179;28;20445;-55
2023/09/18 02:18:43;;;;;;;8.10;1.83;;;;;;;17.26;100.00;95781.16;5073387;28;20441;-55
2023/09/18 02:21:10;;;;;;;2.53;1.97;;;;;;;17.36;100.00;95776.38;5073326;28;20526;-54
2023/09/18 02:23:39;;;;;;;1.33;1.23;;;;;;;17.31;100.00;95781.06;5072929;28;20855;-54
2023/09/18 02:26:08;;;;;;;1.47;1.37;;;;;;;17.10;100.00;95775.34;5073516;28;21037;-55
2023/09/18 02:28:36;;;;;;;1.93;1.83;;;;;;;17.02;100.00;95774.16;5073357;28;20472;-55
2023/09/18 02:31:06;;;;;;;1.73;1.63;;;;;;;16.85;100.00;95767.81;5073441;28;20455;-55
2023/09/18 02:33:34;;;;;;;1.90;1.80;;;;;;;16.72;100.00;95763.25;5073186;28;20986;-55
2023/09/18 02:36:03;;;;;;;1.37;1.27;;;;;;;16.87;100.00;95766.41;5072980;28;20505;-55
2023/09/18 02:38:31;;;;;;;5.83;1.77;;;;;;;17.31;100.00;95765.78;5073026;28;20469;-55
2023/09/18 02:40:59;;;;;;;1.50;1.40;;;;;;;17.42;100.00;95767.16;5072691;28;20472;-55
2023/09/18 02:43:28;;;;;;;2.23;2.07;;;;;;;17.86;100.00;95773.72;5072841;28;20433;-56
2023/09/18 02:45:56;;;;;;;1.40;1.20;;;;;;;18.15;100.00;95766.81;5072830;28;20515;-55
2023/09/18 02:48:26;;;;;;;6.53;1.20;;;;;;;18.38;100.00;95759.56;5072957;28;20856;-55
2023/09/18 02:50:54;;;;;;;1.10;0.53;;;;;;;18.34;100.00;95761.28;5071897;28;20473;-55
2023/09/18 02:53:24;;;;;;;0.60;0.40;;;;;;;18.52;100.00;95759.50;5072448;28;20503;-55
2023/09/18 02:55:54;;;;;;;0.97;0.97;;;;;;;18.50;100.00;95770.53;5071844;28;20520;-56
2023/09/18 02:58:25;;;;;;;1.00;1.00;;;;;;;18.34;100.00;95772.00;5072249;28;20437;-55
2023/09/18 03:00:58;;;;;;;0.60;0.60;;;;;;;18.69;100.00;95771.13;5071702;28;20433;-55
2023/09/18 03:03:28;;;;;;;1.27;1.17;;;;;;;18.00;100.00;95726.97;5072746;28;20464;-55
2023/09/18 03:06:02;;;;;;;1.40;1.30;;;;;;;18.03;100.00;95788.06;5059240;28;20433;-56
2023/09/18 03:08:31;;;;;;;3.03;1.43;;;;;;;17.27;100.00;95727.28;5072502;28;20472;-56
2023/09/18 03:11:00;;;;;;;7.83;1.40;;;;;;;17.50;100.00;95787.88;5072265;28;20495;-55
2023/09/18 03:13:29;;;;;;;1.80;1.63;;;;;;;17.67;100.00;95796.13;5072251;28;20457;-55
2023/09/18 03:15:57;;;;;;;1.47;1.37;;;;;;;17.74;100.00;95793.00;5071776;28;21000;-55
2023/09/18 03:18:27;;;;;;;1.30;0.73;;;;;;;17.87;100.00;95794.84;5072420;28;20491;-55
2023/09/18 03:20:55;;;;;;;0.80;0.73;;;;;;;17.41;100.00;95749.47;5072603;28;20525;-54
2023/09/18 03:23:23;;;;;;;0.63;0.60;;;;;;;17.90;100.00;95796.13;5072490;28;20433;-55
2023/09/18 03:25:52;;;;;;;0.87;0.60;;;;;;;17.80;100.00;95799.06;5071929;28;20954;-55
2023/09/18 03:28:20;;;;;;;1.03;0.90;;;;;;;17.53;100.00;95752.44;5071667;28;20465;-55
2023/09/18 03:30:47;;;;;;;3.63;0.87;;;;;;;17.64;100.00;95788.66;5072134;28;20482;-55
2023/09/18 03:33:16;;;;;;;1.20;1.10;;;;;;;17.55;100.00;95782.44;5070855;28;20448;-55
2023/09/18 03:35:50;;;;;;;1.00;1.00;;;;;;;17.30;100.00;95787.53;5071380;28;20516;-55
2023/09/18 03:38:19;;;;;;;12.23;1.93;;;;;;;16.80;100.00;95760.66;5072015;28;20999;-55
2023/09/18 03:40:47;;;;;;;2.43;2.33;;;;;;;16.80;100.00;95794.69;5071663;28;20973;-55
2023/09/18 03:43:15;;;;;;;2.20;2.10;;;;;;;16.70;100.00;95776.09;5072179;28;20507;-55
2023/09/18 03:45:43;;;;;;;2.70;1.57;;;;;;;16.90;100.00;95779.19;5071988;28;20445;-56
2023/09/18 03:48:12;;;;;;;3.90;2.20;;;;;;;16.76;100.00;95780.28;5071712;28;20977;-55
2023/09/18 03:50:40;;;;;;;4.23;2.33;;;;;;;16.78;100.00;95778.09;5071699;28;20445;-55
2023/09/18 03:53:11;;;;;;;0.93;0.90;;;;;;;17.12;100.00;95779.31;5071290;28;20813;-55
2023/09/18 03:55:40;;;;;;;0.77;0.77;;;;;;;17.60;100.00;95781.53;5071683;28;20447;-55
2023/09/18 03:58:08;;;;;;;0.80;0.80;;;;;;;17.73;100.00;95792.22;5071120;28;20525;-56
2023/09/18 04:00:37;;;;;;;1.30;1.10;;;;;;;17.57;100.00;95790.19;5071501;28;20476;-56
2023/09/18 04:03:05;;;;;;;3.50;3.30;;;;;;;17.38;100.00;95782.22;5071050;28;20442;-55
2023/09/18 04:05:33;;;;;;;5.10;1.50;;;;;;;17.42;100.00;95791.28;5071142;28;20490;-55
2023/09/18 04:08:02;;;;;;;2.30;1.70;;;;;;;17.40;100.00;95793.47;5070676;28;20879;-55
2023/09/18 04:10:32;;;;;;;1.73;1.63;;;;;;;16.89;100.00;95790.22;5071656;28;20445;-56
2023/09/18 04:13:01;;;;;;;2.00;1.90;;;;;;;16.65;100.00;95770.84;5046316;28;20484;-56
2023/09/18 04:15:31;;;;;;;5.10;1.47;;;;;;;16.56;100.00;95788.69;5071223;28;20507;-56
2023/09/18 04:17:59;;;;;;;2.20;1.07;;;;;;;16.67;100.00;95793.53;5071589;28;20922;-55
2023/09/18 04:20:28;;;;;;;2.10;1.90;;;;;;;16.56;100.00;95786.00;5070759;28;21015;-55
2023/09/18 04:23:22;;;;;;;2.93;0.70;;;;;;;16.90;100.00;95789.13;5070957;28;20470;-55
2023/09/18 04:25:52;;;;;;;0.60;0.50;;;;;;;17.35;100.00;95780.19;5070162;28;20433;-55
2023/09/18 04:28:22;;;;;;;2.10;1.07;;;;;;;17.63;100.00;95781.72;5070178;28;20465;-54
2023/09/18 04:30:51;;;;;;;0.83;0.83;;;;;;;17.57;100.00;95788.28;5070356;28;20520;-55
2023/09/18 04:33:21;;;;;;;2.10;1.20;;;;;;;17.54;100.00;95783.53;5070533;28;20448;-55
2023/09/18 04:35:50;;;;;;;1.70;1.60;;;;;;;17.19;100.00;95786.13;5070617;28;20507;-56
2023/09/18 04:38:19;;;;;;;1.70;1.60;;;;;;;17.09;100.00;95800.53;5070775;28;20446;-55
2023/09/18 04:40:48;;;;;;;1.00;1.00;;;;;;;17.44;100.00;95791.75;5062105;28;20479;-56
2023/09/18 04:43:17;;;;;;;1.00;0.80;;;;;;;17.72;100.00;95796.00;5066915;28;20854;-56
2023/09/18 04:45:46;;;;;;;1.83;1.30;;;;;;;17.80;100.00;95801.72;5072775;28;20515;-56
2023/09/18 04:48:14;;;;;;;0.97;0.93;;;;;;;17.68;100.00;95775.47;5074628;28;20984;-55
2023/09/18 04:50:43;;;;;;;1.00;0.63;;;;;;;18.12;100.00;95798.81;5074583;28;20516;-55
2023/09/18 04:53:11;;;;;;;0.70;0.60;;;;;;;17.91;100.00;95811.16;5073864;28;20474;-55
2023/09/18 04:55:40;;;;;;;1.20;1.10;;;;;;;18.22;100.00;95812.00;5074218;28;20433;-55
2023/09/18 04:58:08;;;;;;;1.27;1.17;;;;;;;18.26;100.00;95807.63;5074507;28;20433;-56
2023/09/18 05:00:38;;;;;;;1.90;0.40;;;;;;;18.19;100.00;95809.94;5074269;28;20448;-56
2023/09/18 05:03:08;;;;;;;0.80;0.80;;;;;;;18.19;100.00;95808.03;5072436;28;20469;-56
2023/09/18 05:05:36;;;;;;;0.50;0.40;;;;;;;18.26;100.00;95804.94;5073062;28;20437;-55
2023/09/18 05:08:08;;;;;;;0.80;0.60;;;;;;;18.29;100.00;95807.78;5073305;28;20854;-56
2023/09/18 05:10:36;;;;;;;0.70;0.53;;;;;;;18.04;100.00;95807.59;5072309;28;20452;-55
2023/09/18 05:13:04;;;;;;;1.00;1.00;;;;;;;18.31;100.00;95796.78;5073782;28;20512;-56
2023/09/18 05:15:33;;;;;;;0.63;0.57;;;;;;;18.35;100.00;95803.91;5073333;28;20494;-54
2023/09/18 05:18:03;;;;;;;0.50;0.40;;;;;;;18.61;100.00;95800.59;5074634;28;20433;-56
2023/09/18 05:20:32;;;;;;;0.70;0.70;;;;;;;18.82;100.00;95791.69;5074360;28;20434;-55
2023/09/18 05:23:02;;;;;;;1.10;0.97;;;;;;;19.03;100.00;95806.19;5074399;28;20433;-55
2023/09/18 05:25:32;;;;;;;0.90;0.70;;;;;;;19.15;100.00;95800.19;5074026;28;20440;-56
2023/09/18 05:28:04;;;;;;;1.07;0.97;;;;;;;18.93;100.00;95801.06;5074198;28;20437;-57
2023/09/18 05:30:34;;;;;;;1.13;0.70;;;;;;;19.05;100.00;95799.72;5074174;28;20482;-57
2023/09/18 05:33:06;;;;;;;0.50;0.50;;;;;;;19.03;100.00;95794.63;5074469;28;20438;-55
2023/09/18 05:35:36;;;;;;;0.73;0.70;;;;;;;18.96;100.00;95805.03;5073809;28;20530;-56
2023/09/18 05:38:05;;;;;;;2.60;1.07;;;;;;;18.92;100.00;95806.78;5073632;28;20430;-56
2023/09/18 05:40:33;;;;;;;1.07;0.60;;;;;;;19.35;100.00;95806.94;5073902;28;20447;-56
2023/09/18 05:43:02;;;;;;;3.13;1.10;;;;;;;19.22;100.00;95813.19;5060163;28;21023;-56
2023/09/18 05:45:31;;;;;;;0.97;0.97;;;;;;;19.62;100.00;95809.38;5073457;28;20450;-55
2023/09/18 05:48:03;;;;;;;1.37;1.27;;;;;;;19.80;100.00;95808.28;5073131;28;20441;-55
2023/09/18 05:50:36;;;;;;;0.70;0.67;;;;;;;20.18;100.00;95809.25;5073790;28;20476;-54
2023/09/18 05:53:05;;;;;;;0.97;0.90;;;;;;;20.69;100.00;95811.13;5073858;28;20442;-54
2023/09/18 05:55:34;;;;;;;0.80;0.80;;;;;;;21.27;100.00;95807.75;5073714;28;20445;-53
2023/09/18 05:58:04;;;;;;;1.37;0.40;;;;;;;21.33;100.00;95778.69;5072666;28;20795;-53
2023/09/18 06:00:33;;;;;;;2.10;1.07;;;;;;;21.83;100.00;95805.69;5074089;28;20446;-53
2023/09/18 06:03:02;;;;;;;2.20;0.40;;;;;;;21.94;100.00;95806.88;5073049;28;20433;-53
2023/09/18 06:05:33;;;;;;;0.80;0.80;;;;;;;22.37;97.39;95812.72;5073821;28;20514;-54
2023/09/18 06:08:04;;;;;;;0.60;0.50;;;;;;;22.59;96.28;95808.88;5073850;28;20433;-53
2023/09/18 06:10:32;;;;;;;0.67;0.67;;;;;;;22.89;96.71;95809.53;5073289;28;20481;-51
2023/09/18 06:13:03;;;;;;;0.83;0.83;;;;;;;23.02;95.20;95811.16;5073765;28;20464;-51
2023/09/18 06:15:33;;;;;;;8.57;0.57;;;;;;;22.99;90.45;95809.91;5072716;28;20448;-51
2023/09/18 06:18:01;;;;;;;0.50;0.50;;;;;;;23.21;88.06;95808.66;5073740;28;20437;-52
2023/09/18 06:20:30;;;;;;;0.70;0.70;;;;;;;23.47;88.32;95811.09;5072012;28;21021;-52
2023/09/18 06:22:58;;;;;;;0.77;0.77;;;;;;;23.56;85.05;95809.03;5073200;28;20429;-52
2023/09/18 06:25:28;;;;;;;5.40;1.67;;;;;;;23.30;88.16;95806.66;5062759;28;20464;-52
2023/09/18 06:27:56;;;;;;;1.80;1.47;;;;;;;22.87;92.34;95812.56;5068973;28;20445;-52
2023/09/18 06:30:25;;;;;;;1.87;1.77;;;;;;;23.00;91.50;95807.97;5053504;28;20508;-52
2023/09/18 06:32:53;;;;;;;2.37;1.27;;;;;;;23.05;93.32;95803.13;5061674;28;20496;-52
2023/09/18 06:35:22;;;;;;;1.17;1.07;;;;;;;23.43;89.27;95807.47;5054994;28;20487;-53
2023/09/18 06:37:50;;;;;;;4.83;1.37;;;;;;;23.58;90.18;95764.25;5065301;28;20445;-53
2023/09/18 06:40:19;;;;;;;1.70;0.70;;;;;;;24.33;85.08;95791.63;5072439;28;20437;-54
2023/09/18 06:42:49;;;;;;;1.17;1.07;;;;;;;24.42;83.24;95792.25;5072752;28;20451;-53
2023/09/18 06:45:18;;;;;;;0.87;0.87;;;;;;;24.88;82.56;95788.91;5071981;28;20441;-54
2023/09/18 06:47:46;;;;;;;1.37;0.77;;;;;;;25.38;80.84;95795.53;5072827;28;20808;-54
2023/09/18 06:50:15;;;;;;;1.23;0.90;;;;;;;25.32;78.45;95789.59;5072301;28;20469;-54
2023/09/18 06:52:43;;;;;;;1.10;0.80;;;;;;;25.06;78.29;95790.13;5072803;28;20437;-54
2023/09/18 06:55:12;;;;;;;0.57;0.57;;;;;;;25.12;77.95;95796.09;5072785;28;20441;-54
2023/09/18 06:57:41;;;;;;;0.73;0.73;;;;;;;25.16;80.32;95797.75;5072598;28;20437;-55
2023/09/18 07:00:12;;;;;;;0.70;0.67;;;;;;;26.28;76.37;95789.84;5072116;28;20463;-55
2023/09/18 07:02:42;;;;;;;0.70;0.70;;;;;;;26.80;72.42;95792.81;5071972;28;20520;-55
2023/09/18 07:05:11;;;;;;;4.50;1.90;;;;;;;26.46;73.12;95791.00;5072577;28;20523;-55
2023/09/18 07:07:39;;;;;;;1.33;1.23;;;;;;;26.67;71.61;95782.44;5072281;28;20441;-55
2023/09/18 07:10:08;;;;;;;1.50;1.40;;;;;;;26.38;73.76;95779.19;5072032;28;21070;-55
2023/09/18 07:12:37;;;;;;;10.97;1.60;;;;;;;26.31;70.83;95791.88;5071847;28;20451;-55
2023/09/18 07:15:07;;;;;;;0.70;0.70;;;;;;;26.81;70.25;95782.75;5071398;28;20477;-55
2023/09/18 07:17:36;;;;;;;1.70;1.00;;;;;;;27.05;69.39;95779.66;5071343;28;20524;-55
2023/09/18 07:20:13;;;;;;;1.53;1.43;;;;;;;26.09;71.29;95787.88;5071484;28;20445;-55
2023/09/18 07:22:48;;;;;;;1.23;0.90;;;;;;;25.72;74.30;95794.81;5066680;28;20449;-56
2023/09/18 07:25:16;;;;;;;1.30;1.30;;;;;;;24.94;76.83;95787.50;5064877;28;20451;-56
2023/09/18 07:27:45;;;;;;;1.47;1.37;;;;;;;24.46;80.08;95782.31;5045435;28;20980;-55
2023/09/18 07:30:15;;;;;;;2.27;2.10;;;;;;;24.14;81.86;95791.47;5071930;28;20542;-55
2023/09/18 07:32:46;;;;;;;2.63;1.43;;;;;;;23.73;85.49;95790.63;5071408;28;20438;-55
2023/09/18 07:35:15;;;;;;;2.50;2.30;;;;;;;23.95;86.13;95775.81;5071838;28;20481;-55
2023/09/18 07:37:46;;;;;;;1.30;1.20;;;;;;;23.94;85.60;95788.56;5072062;28;20437;-54
2023/09/18 07:40:16;;;;;;;1.17;1.07;;;;;;;23.91;87.40;95796.56;5072107;28;20460;-54
2023/09/18 07:42:45;;;;;;;1.37;1.20;;;;;;;24.13;87.87;95793.41;5071608;28;20456;-54
2023/09/18 07:45:14;;;;;;;0.80;0.70;;;;;;;24.19;87.45;95799.34;5071778;28;20519;-54
2023/09/18 07:47:42;;;;;;;1.27;1.17;;;;;;;24.78;85.37;95794.03;5071662;28;20451;-54
2023/09/18 07:50:14;;;;;;;0.50;0.50;;;;;;;25.31;82.25;95766.31;5071338;28;20480;-55
2023/09/18 07:52:45;;;;;;;1.30;1.20;;;;;;;26.22;75.84;95780.41;5071531;28;20451;-54
2023/09/18 07:55:13;;;;;;;0.83;0.83;;;;;;;26.50;72.92;95783.69;5071640;28;20994;-54
2023/09/18 07:57:44;;;;;;;2.70;2.60;;;;;;;26.95;71.51;95758.50;5071328;28;20464;-55
2023/09/18 08:00:15;;;;;;;1.03;1.03;;;;;;;27.97;65.67;95781.91;5071553;28;20494;-54
2023/09/18 08:02:44;;;;;;;1.20;1.20;;;;;;;28.00;65.41;95780.38;5070836;28;20445;-54
2023/09/18 08:05:14;;;;;;;0.60;0.57;;;;;;;28.08;65.89;95771.94;5071237;28;20445;-54
2023/09/18 08:07:43;;;;;;;2.40;0.70;;;;;;;28.81;64.65;95760.34;5071122;28;20445;-54
2023/09/18 08:10:12;;;;;;;0.83;0.83;;;;;;;28.89;63.15;95758.47;5071186;28;20506;-54
2023/09/18 08:12:40;;;;;;;2.40;0.47;;;;;;;28.88;64.45;95760.41;5070988;28;20925;-54
2023/09/18 08:15:10;;;;;;;0.67;0.67;;;;;;;29.08;61.14;95757.47;5071199;28;20445;-53
2023/09/18 08:17:40;;;;;;;1.07;0.97;;;;;;;29.28;60.74;95751.44;5071149;28;21050;-53
2023/09/18 08:20:12;;;;;;;0.60;0.60;;;;;;;29.75;61.00;95747.88;5073690;28;20445;-53
2023/09/18 08:22:43;;;;;;;1.20;1.10;;;;;;;30.19;59.13;95747.72;5077234;28;20429;-52
2023/09/18 08:25:12;;;;;;;1.30;0.97;;;;;;;30.54;56.64;95738.88;5077694;28;20486;-53
2023/09/18 08:27:41;;;;;;;1.07;0.93;;;;;;;29.58;57.39;95697.41;5077862;28;20429;-53
2023/09/18 08:30:11;;;;;;;0.70;0.67;;;;;;;30.57;58.96;95721.69;5077353;28;20468;-53
2023/09/18 08:32:40;;;;;;;0.83;0.83;;;;;;;31.32;54.22;95724.13;5051600;28;20482;-53
2023/09/18 08:35:10;;;;;;;1.07;0.97;;;;;;;31.68;52.42;95688.47;5077523;28;20841;-53
2023/09/18 08:37:38;;;;;;;0.90;0.70;;;;;;;31.99;53.78;95713.09;5077597;28;20433;-53
2023/09/18 08:40:13;;;;;;;0.80;0.80;;;;;;;32.55;52.89;95712.06;5077581;28;20431;-53
2023/09/18 08:42:46;;;;;;;2.10;1.30;;;;;;;31.56;55.58;95710.81;5077347;28;21018;-53
2023/09/18 08:45:20;;;;;;;1.13;0.87;;;;;;;31.79;54.18;95716.63;5077328;28;20436;-53
2023/09/18 08:47:49;;;;;;;0.60;0.60;;;;;;;32.46;51.35;95700.72;5077698;28;20494;-53
2023/09/18 08:50:18;;;;;;;2.87;1.47;;;;;;;31.97;49.14;95703.66;5077095;28;21004;-53
2023/09/18 08:52:48;;;;;;;2.10;0.57;;;;;;;32.31;47.46;95701.22;5077364;28;20439;-53
2023/09/18 08:55:18;;;;;;;0.60;0.60;;;;;;;33.12;47.10;95645.75;5077292;28;20444;-52
2023/09/18 08:57:47;;;;;;;0.80;0.60;;;;;;;34.89;43.45;95689.25;5077686;28;20543;-52
2023/09/18 09:00:17;;;;;;;1.03;1.03;;;;;;;34.85;45.17;95696.03;5051024;28;20437;-51
2023/09/18 09:02:48;;;;;;;1.43;1.23;;;;;;;34.34;41.86;95675.88;5077642;28;20444;-51
2023/09/18 09:05:17;;;;;;;0.70;0.70;;;;;;;33.99;41.72;95672.78;5076964;28;20428;-51
2023/09/18 09:07:46;;;;;;;0.60;0.40;;;;;;;35.01;41.52;95677.69;5076928;28;20523;-51
2023/09/18 09:10:14;;;;;;;0.67;0.43;;;;;;;34.70;39.65;95676.19;5076979;28;20436;-51
2023/09/18 09:12:58;;;;;;;0.83;0.63;;;;;;;34.58;39.75;95673.22;5076806;28;20479;-52
2023/09/18 09:15:28;;;;;;;0.60;0.57;;;;;;;34.68;38.90;95667.56;5078002;28;20440;-52
2023/09/18 09:18:05;;;;;;;1.23;1.10;;;;;;;34.15;41.58;95681.25;5076488;28;20436;-51
2023/09/18 09:20:35;;;;;;;0.87;0.87;;;;;;;32.34;41.97;95656.50;5064265;28;20475;-51
2023/09/18 09:23:05;;;;;;;0.67;0.67;;;;;;;31.64;42.45;95676.75;5052028;28;21008;-52
2023/09/18 09:25:34;;;;;;;0.77;0.70;;;;;;;32.19;42.76;95671.47;5077169;28;20956;-52
2023/09/18 09:28:05;;;;;;;0.40;0.37;;;;;;;33.35;41.69;95669.88;5077376;28;20459;-52
2023/09/18 09:30:36;;;;;;;0.40;0.40;;;;;;;33.25;40.11;95666.84;5077227;28;20444;-51
2023/09/18 09:33:06;;;;;;;0.70;0.53;;;;;;;34.29;39.11;95667.28;5074569;28;20440;-52
2023/09/18 09:35:36;;;;;;;0.77;0.60;;;;;;;35.18;37.44;95653.00;5073902;28;20980;-52
2023/09/18 09:38:09;;;;;;;0.47;0.47;;;;;;;34.50;37.10;95661.50;5074233;28;20445;-51
2023/09/18 09:40:40;;;;;;;0.40;0.30;;;;;;;35.40;37.35;95663.25;5074446;28;20506;-51
2023/09/18 09:43:13;;;;;;;0.50;0.40;;;;;;;35.47;36.59;95652.09;5073804;28;20444;-52
2023/09/18 09:45:42;;;;;;;0.50;0.40;;;;;;;34.79;37.52;95648.09;5073870;28;21030;-52
2023/09/18 09:48:11;;;;;;;0.67;0.67;;;;;;;35.59;35.14;95631.44;5073677;28;20515;-52
2023/09/18 09:50:47;;;;;;;0.70;0.53;;;;;;;35.57;35.07;95640.09;5073732;28;20443;-52
2023/09/18 09:53:15;;;;;;;0.67;0.67;;;;;;;34.98;36.89;95608.84;5073842;28;20461;-53
2023/09/18 09:55:44;;;;;;;0.50;0.40;;;;;;;34.26;37.87;95638.63;5073518;28;20198;-53
2023/09/18 09:58:14;;;;;;;0.40;0.30;;;;;;;33.05;38.74;95635.63;5073431;28;20200;-53
2023/09/18 10:00:45;;;;;;;0.50;0.43;;;;;;;32.03;39.44;95639.00;5074007;28;20440;-55
2023/09/18 10:03:16;;;;;;;0.40;0.30;;;;;;;31.52;40.85;95642.34;5073601;28;20862;-56
2023/09/18 10:05:46;;;;;;;0.40;0.30;;;;;;;31.77;41.14;95621.09;5073506;28;20443;-56
2023/09/18 10:08:18;;;;;;;0.40;0.30;;;;;;;31.40;40.58;95621.56;5073655;28;20440;-56
2023/09/18 10:10:49;;;;;;;0.33;0.30;;;;;;;31.46;41.45;95627.47;5073079;28;20441;-55
2023/09/18 10:13:21;;;;;;;0.40;0.30;;;;;;;32.15;41.16;95624.88;5073494;28;20443;-54
2023/09/18 10:15:51;;;;;;;0.80;0.57;;;;;;;32.21;37.86;95628.72;5072884;28;20448;-56
2023/09/18 10:18:27;;;;;;;0.50;0.40;;;;;;;33.02;40.58;95624.63;5073683;28;20445;-55
2023/09/18 10:21:03;;;;;;;0.50;0.40;;;;;;;33.22;38.65;95589.94;5072922;28;20497;-55
2023/09/18 10:23:46;;;;;;;0.60;0.50;;;;;;;34.23;36.69;95608.44;5072956;28;20497;-56
2023/09/18 10:26:24;;;;;;;0.87;0.33;;;;;;;35.43;36.00;95603.72;5073000;28;20436;-51
2023/09/18 10:28:58;;;;;;;0.60;0.40;;;;;;;34.68;35.80;95592.44;5072843;28;20476;-51
2023/09/18 10:31:29;;;;;;;0.57;0.57;;;;;;;35.08;35.46;95596.91;5072202;28;20475;-52
2023/09/18 10:33:58;;;;;;;0.50;0.30;;;;;;;35.73;33.39;95573.22;5067915;28;20453;-52
2023/09/18 10:36:27;;;;;;;0.70;0.70;;;;;;;35.25;35.83;95586.75;5064151;28;21012;-52
2023/09/18 10:38:56;;;;;;;1.00;0.70;;;;;;;35.16;36.23;95587.31;5072928;28;20463;-53
2023/09/18 10:41:25;;;;;;;0.40;0.30;;;;;;;33.49;36.56;95585.34;5072943;28;20257;-52
2023/09/18 10:43:57;;;;;;;0.80;0.80;;;;;;;32.64;37.75;95566.91;5071993;28;20194;-52
2023/09/18 10:46:26;;;;;;;0.40;0.30;;;;;;;32.40;38.89;95595.31;5073155;28;20445;-52
2023/09/18 10:48:56;;;;;;;0.40;0.30;;;;;;;32.63;37.88;95587.34;5046927;28;20437;-52
2023/09/18 10:51:25;;;;;;;0.60;0.50;;;;;;;33.50;36.24;95580.59;5071635;28;20500;-52
2023/09/18 10:53:54;;;;;;;0.40;0.33;;;;;;;34.25;35.30;95576.56;5072018;28;20471;-52
2023/09/18 10:56:23;;;;;;;0.60;0.60;;;;;;;35.22;33.63;95576.59;5072389;28;20436;-52
2023/09/18 10:58:59;;;;;;;0.40;0.30;;;;;;;35.51;34.13;95574.81;5072087;28;20835;-53
2023/09/18 11:01:29;;;;;;;0.40;0.30;;;;;;;35.16;33.75;95562.50;5072722;28;20484;-52
2023/09/18 11:04:01;;;;;;;0.60;0.60;;;;;;;34.55;34.81;95563.94;5072490;28;20198;-52
2023/09/18 11:06:30;;;;;;;0.40;0.30;;;;;;;33.35;35.89;95563.50;5066969;28;20461;-52
2023/09/18 11:09:09;;;;;;;0.60;0.60;;;;;;;32.28;39.11;95568.38;5064323;28;20444;-51
2023/09/18 11:11:38;;;;;;;0.73;0.50;;;;;;;32.58;36.70;95563.06;5071087;28;20464;-53
2023/09/18 11:14:13;;;;;;;0.40;0.33;;;;;;;33.58;36.11;95560.91;5072241;28;20515;-54
2023/09/18 11:16:43;;;;;;;0.53;0.50;;;;;;;34.20;34.77;95556.97;5072459;28;20440;-51
2023/09/18 11:19:15;;;;;;;0.37;0.30;;;;;;;35.15;33.30;95560.16;5072051;28;20441;-51
2023/09/18 11:21:43;;;;;;;0.40;0.40;;;;;;;36.50;32.92;95553.44;5071756;28;20523;-51
2023/09/18 11:24:17;;;;;;;0.43;0.43;;;;;;;36.53;31.99;95530.50;5071937;28;20436;-50
2023/09/18 11:26:47;;;;;;;0.57;0.43;;;;;;;35.69;32.37;95547.72;5072032;28;20502;-52
2023/09/18 11:29:19;;;;;;;6.77;0.50;;;;;;;35.82;33.07;95540.34;5071641;28;21028;-51
2023/09/18 11:31:50;;;;;;;0.73;0.57;;;;;;;34.67;33.91;95542.09;5071237;28;20293;-52
2023/09/18 11:34:22;;;;;;;0.43;0.40;;;;;;;35.53;33.64;95536.59;5071231;28;20202;-53
2023/09/18 11:36:51;;;;;;;0.40;0.30;;;;;;;36.15;33.33;95464.72;5071528;28;20194;-52
2023/09/18 11:39:37;;;;;;;0.40;0.40;;;;;;;36.66;32.56;95521.06;5071615;28;20198;-52
2023/09/18 11:42:11;;;;;;;0.53;0.40;;;;;;;35.82;32.71;95526.56;5071410;28;20228;-52